TimeEDT,TemperatureF,Dew PointF,Humidity,Sea Level PressureIn,VisibilityMPH,Wind Direction,Wind SpeedMPH,Gust SpeedMPH,PrecipitationIn,Events,Conditions,WindDirDegrees,DateUTC
12:15 AM,77.2,72.1,84,30.30,10.0,North,-9999.0,-,N/A,,Unknown,0,2013-07-15 04:15:00
12:35 AM,76.3,72.1,87,30.30,10.0,North,-9999.0,-,N/A,,Unknown,0,2013-07-15 04:35:00
12:55 AM,75.6,72.9,91,30.30,10.0,North,-9999.0,-,N/A,,Unknown,0,2013-07-15 04:55:00
1:15 AM,75.4,73.4,94,30.30,10.0,North,-9999.0,-,N/A,,Unknown,0,2013-07-15 05:15:00
1:35 AM,74.3,72.9,95,30.30,10.0,North,-9999.0,-,N/A,,Unknown,0,2013-07-15 05:35:00
1:55 AM,73.6,73.2,99,30.30,10.0,North,-9999.0,-,N/A,,Unknown,0,2013-07-15 05:55:00
2:15 AM,73.6,73.4,99,30.30,10.0,North,-9999.0,-,N/A,,Unknown,0,2013-07-15 06:15:00
2:35 AM,72.7,72.7,100,30.30,10.0,North,-9999.0,-,N/A,,Unknown,0,2013-07-15 06:35:00
2:55 AM,72.5,72.3,99,30.30,10.0,North,-9999.0,-,N/A,,Unknown,0,2013-07-15 06:55:00
3:15 AM,72.0,71.8,99,30.29,10.0,North,-9999.0,-,N/A,,Unknown,0,2013-07-15 07:15:00
3:35 AM,72.5,72.5,100,30.29,10.0,North,-9999.0,-,N/A,,Unknown,0,2013-07-15 07:35:00
3:55 AM,72.5,72.5,100,30.29,10.0,North,-9999.0,-,N/A,,Unknown,0,2013-07-15 07:55:00
4:15 AM,71.6,71.6,100,30.29,10.0,North,-9999.0,-,N/A,,Unknown,0,2013-07-15 08:15:00
4:35 AM,71.8,71.8,100,30.29,10.0,North,-9999.0,-,N/A,,Unknown,0,2013-07-15 08:35:00
4:55 AM,71.6,71.6,100,30.30,10.0,North,-9999.0,-,N/A,,Unknown,0,2013-07-15 08:55:00
5:15 AM,71.6,71.6,100,30.30,10.0,North,-9999.0,-,N/A,,Unknown,0,2013-07-15 09:15:00
5:35 AM,71.1,71.1,100,30.30,10.0,North,-9999.0,-,N/A,,Unknown,0,2013-07-15 09:35:00
5:55 AM,71.2,71.2,100,30.30,10.0,North,-9999.0,-,N/A,,Unknown,0,2013-07-15 09:55:00
6:15 AM,71.6,71.6,100,30.30,10.0,North,-9999.0,-,N/A,,Unknown,0,2013-07-15 10:15:00
6:35 AM,71.8,71.8,100,30.30,10.0,North,-9999.0,-,N/A,,Unknown,0,2013-07-15 10:35:00
6:55 AM,72.0,72.0,100,30.30,10.0,North,-9999.0,-,N/A,,Clear,0,2013-07-15 10:55:00
7:15 AM,73.4,72.9,98,30.31,10.0,North,-9999.0,-,N/A,,Clear,0,2013-07-15 11:15:00
7:35 AM,74.5,73.8,98,30.31,10.0,North,-9999.0,-,N/A,,Clear,0,2013-07-15 11:35:00
7:55 AM,76.1,74.3,94,30.30,10.0,North,-9999.0,-,N/A,,Clear,0,2013-07-15 11:55:00
8:15 AM,78.3,75.2,90,30.30,10.0,North,-9999.0,-,N/A,,Clear,0,2013-07-15 12:15:00
8:35 AM,80.6,75.7,85,30.31,10.0,North,-9999.0,-,N/A,,Clear,0,2013-07-15 12:35:00
8:55 AM,81.7,75.6,82,30.31,10.0,North,-9999.0,-,N/A,,Unknown,0,2013-07-15 12:55:00
9:15 AM,82.6,74.1,75,30.31,10.0,North,-9999.0,-,N/A,,Clear,0,2013-07-15 13:15:00
9:35 AM,84.4,73.6,70,30.31,10.0,North,-9999.0,-,N/A,,Clear,0,2013-07-15 13:35:00
9:55 AM,85.3,73.8,68,30.30,10.0,North,-9999.0,-,N/A,,Clear,0,2013-07-15 13:55:00
10:15 AM,86.7,74.1,66,30.30,10.0,North,-9999.0,-,N/A,,Clear,0,2013-07-15 14:15:00
10:35 AM,87.3,72.9,62,30.30,10.0,North,-9999.0,-,N/A,,Clear,0,2013-07-15 14:35:00
10:55 AM,88.2,72.3,59,30.30,10.0,North,-9999.0,-,N/A,,Clear,0,2013-07-15 14:55:00
11:15 AM,89.2,72.5,58,30.30,10.0,North,-9999.0,-,N/A,,Clear,0,2013-07-15 15:15:00
11:35 AM,88.5,72.1,58,30.30,7.0,North,-9999.0,-,N/A,,Scattered Clouds,0,2013-07-15 15:35:00
11:55 AM,89.6,73.0,58,30.29,10.0,North,-9999.0,-,N/A,,Scattered Clouds,0,2013-07-15 15:55:00
12:15 PM,90.0,70.9,53,30.29,10.0,North,-9999.0,-,N/A,,Mostly Cloudy,0,2013-07-15 16:15:00
12:35 PM,91.4,70.5,50,30.29,10.0,North,-9999.0,-,N/A,,Scattered Clouds,0,2013-07-15 16:35:00
12:55 PM,91.0,68.0,47,30.28,10.0,North,-9999.0,-,N/A,,Scattered Clouds,0,2013-07-15 16:55:00
1:15 PM,92.1,67.6,44,30.27,10.0,North,-9999.0,-,N/A,,Scattered Clouds,0,2013-07-15 17:15:00
1:35 PM,92.5,68.7,46,30.27,10.0,North,-9999.0,-,N/A,,Clear,0,2013-07-15 17:35:00
1:55 PM,92.5,68.0,45,30.26,10.0,North,-9999.0,-,N/A,,Clear,0,2013-07-15 17:55:00
2:15 PM,92.8,68.9,45,30.26,10.0,North,-9999.0,-,N/A,,Scattered Clouds,0,2013-07-15 18:15:00
2:35 PM,93.6,69.3,45,30.25,10.0,North,-9999.0,-,N/A,,Clear,0,2013-07-15 18:35:00
2:55 PM,94.5,70.7,46,30.25,10.0,North,-9999.0,-,N/A,,Scattered Clouds,0,2013-07-15 18:55:00
3:15 PM,94.1,71.1,47,30.25,10.0,North,-9999.0,-,N/A,,Scattered Clouds,0,2013-07-15 19:15:00
3:35 PM,94.1,71.1,47,30.24,10.0,North,-9999.0,-,N/A,,Mostly Cloudy,0,2013-07-15 19:35:00
3:55 PM,94.3,70.5,46,30.23,10.0,North,-9999.0,-,N/A,,Mostly Cloudy,0,2013-07-15 19:55:00
4:15 PM,91.8,69.8,48,30.23,10.0,North,-9999.0,-,N/A,,Scattered Clouds,0,2013-07-15 20:15:00
4:35 PM,94.3,70.5,46,30.23,10.0,North,-9999.0,-,N/A,,Clear,0,2013-07-15 20:35:00
4:55 PM,93.6,69.3,45,30.22,10.0,NNE,4.6,-,N/A,,Scattered Clouds,20,2013-07-15 20:55:00
5:15 PM,93.7,68.5,44,30.22,10.0,Calm,Calm,-,N/A,,Scattered Clouds,0,2013-07-15 21:15:00
5:35 PM,94.3,70.7,46,30.22,10.0,NNW,4.6,-,N/A,,Scattered Clouds,340,2013-07-15 21:35:00
5:55 PM,93.7,69.8,46,30.21,10.0,NNE,5.8,-,N/A,,Scattered Clouds,20,2013-07-15 21:55:00
6:15 PM,93.4,70.2,47,30.21,10.0,Calm,Calm,-,N/A,,Scattered Clouds,0,2013-07-15 22:15:00
6:35 PM,93.2,70.0,47,30.20,10.0,West,4.6,-,N/A,,Clear,280,2013-07-15 22:35:00
6:55 PM,92.7,69.4,47,30.21,10.0,WNW,3.5,-,N/A,,Clear,290,2013-07-15 22:55:00
7:15 PM,92.3,69.4,47,30.20,10.0,WNW,4.6,-,N/A,,Clear,290,2013-07-15 23:15:00
7:35 PM,91.2,69.8,49,30.20,10.0,WNW,3.5,-,N/A,,Clear,290,2013-07-15 23:35:00
7:55 PM,88.7,74.8,63,30.21,10.0,Calm,Calm,-,N/A,,Clear,0,2013-07-15 23:55:00
8:15 PM,86.4,75.4,70,30.20,10.0,Calm,Calm,-,N/A,,Clear,0,2013-07-16 00:15:00
8:35 PM,83.3,74.1,74,30.20,10.0,WSW,3.5,-,N/A,,Clear,240,2013-07-16 00:35:00
8:55 PM,82.9,73.4,73,30.20,10.0,Calm,Calm,-,N/A,,Clear,0,2013-07-16 00:55:00
9:15 PM,81.5,73.0,75,30.21,10.0,Calm,Calm,-,N/A,,Clear,0,2013-07-16 01:15:00
9:35 PM,80.6,72.9,77,30.21,10.0,Calm,Calm,-,N/A,,Clear,0,2013-07-16 01:35:00
9:55 PM,79.7,72.9,80,30.22,10.0,Calm,Calm,-,N/A,,Clear,0,2013-07-16 01:55:00
10:15 PM,80.1,73.2,80,30.22,10.0,WSW,3.5,-,N/A,,Clear,240,2013-07-16 02:15:00
10:35 PM,81.7,73.8,77,30.22,10.0,Calm,Calm,-,N/A,,Clear,0,2013-07-16 02:35:00
10:55 PM,80.6,73.8,80,30.22,10.0,Calm,Calm,-,N/A,,Clear,0,2013-07-16 02:55:00
11:15 PM,79.7,73.9,82,30.22,10.0,Calm,Calm,-,N/A,,Clear,0,2013-07-16 03:15:00
11:35 PM,81.0,73.6,78,30.22,10.0,Calm,Calm,-,N/A,,Clear,0,2013-07-16 03:35:00
11:55 PM,81.1,73.4,77,30.22,10.0,WSW,3.5,-,N/A,,Clear,250,2013-07-16 03:55:00